Time;durP1;ratioP1;P1;durP2;ratioP2;P2;SDS_P1;SDS_P2;PMS_P1;PMS_P2;Temp;Humidity;BMP_temperature;BMP_pressure;BME280_temperature;BME280_humidity;BME280_pressure;Samples;Min_cycle;Max_cycle;Signal;HPM_P1;HPM_P2
2023/02/21 02:15:25;;;;;;;36.40;22.00;;;;;;;8.60;100.00;100873.38;108735;1266;73486;-78
2023/02/21 02:18:14;;;;;;;42.50;24.20;;;;;;;8.58;100.00;100866.02;108778;1257;72100;-78
2023/02/21 02:20:52;;;;;;;36.70;22.50;;;;;;;8.56;100.00;100870.83;108822;1257;74295;-78
2023/02/21 02:23:25;;;;;;;39.00;24.60;;;;;;;8.53;100.00;100865.98;108806;1257;59657;-78
2023/02/21 02:26:23;;;;;;;43.20;25.40;;;;;;;8.51;100.00;100868.16;108699;1257;60619;-78
2023/02/21 02:29:37;;;;;;;43.00;25.00;;;;;;;8.50;100.00;100869.70;108778;1261;73494;-80
2023/02/21 02:32:25;;;;;;;42.80;23.60;;;;;;;8.46;100.00;100868.80;108758;1257;71089;-78
2023/02/21 02:35:25;;;;;;;49.30;26.50;;;;;;;8.44;100.00;100860.92;108743;1257;72885;-78
2023/02/21 02:38:01;;;;;;;45.90;26.20;;;;;;;8.45;100.00;100864.59;108635;1257;60920;-77
2023/02/21 02:40:56;;;;;;;42.90;26.00;;;;;;;8.41;100.00;100866.70;108790;1259;60635;-77
2023/02/21 02:43:58;;;;;;;42.70;24.60;;;;;;;8.37;100.00;100865.99;108741;1257;74408;-76
2023/02/21 02:46:33;;;;;;;40.80;22.20;;;;;;;8.36;100.00;100867.87;108719;1257;71099;-77
2023/02/21 02:49:15;;;;;;;45.50;25.90;;;;;;;8.35;100.00;100869.39;108743;1257;71453;-76
2023/02/21 02:51:42;;;;;;;41.20;24.70;;;;;;;8.33;100.00;100870.30;108716;1258;59228;-76
2023/02/21 02:54:09;;;;;;;42.70;25.10;;;;;;;8.32;100.00;100873.95;108539;1257;60475;-76
2023/02/21 02:56:37;;;;;;;46.20;26.30;;;;;;;8.31;100.00;100875.61;108739;1262;73341;-76
2023/02/21 02:59:09;;;;;;;44.50;24.50;;;;;;;8.29;100.00;100874.42;108770;1257;71226;-76
2023/02/21 03:01:54;;;;;;;42.30;22.90;;;;;;;8.30;100.00;100872.39;108816;1257;71118;-76
2023/02/21 03:04:43;;;;;;;50.50;26.20;;;;;;;8.26;100.00;100866.93;108850;1257;60006;-76
2023/02/21 03:07:27;;;;;;;44.90;25.40;;;;;;;8.26;100.00;100861.52;108767;1257;60368;-76
2023/02/21 03:10:12;;;;;;;45.50;24.20;;;;;;;8.27;100.00;100861.08;108743;1260;73209;-76
2023/02/21 03:12:41;;;;;;;43.30;23.90;;;;;;;8.27;100.00;100858.60;108772;1257;69709;-76
2023/02/21 03:15:27;;;;;;;46.10;24.70;;;;;;;8.25;100.00;100855.42;108794;1262;71316;-76
2023/02/21 03:18:10;;;;;;;47.10;25.90;;;;;;;8.27;100.00;100850.80;108849;1257;60824;-76
2023/02/21 03:20:38;;;;;;;43.40;24.50;;;;;;;8.26;100.00;100853.80;108858;1257;59113;-77
2023/02/21 03:23:07;;;;;;;45.60;25.40;;;;;;;8.27;100.00;100843.64;108788;1257;74352;-76
2023/02/21 03:25:37;;;;;;;47.50;24.80;;;;;;;8.27;100.00;100846.48;108783;1257;70881;-77
2023/02/21 03:28:04;;;;;;;47.40;26.30;;;;;;;8.27;100.00;100846.64;108740;1257;71132;-77
2023/02/21 03:30:32;;;;;;;40.40;22.90;;;;;;;8.28;100.00;100858.88;108773;1261;59665;-77
2023/02/21 03:32:59;;;;;;;42.50;23.60;;;;;;;8.28;100.00;100852.30;108799;1257;60318;-77
2023/02/21 03:35:28;;;;;;;41.60;24.20;;;;;;;8.29;100.00;100846.09;108696;1257;73589;-76
2023/02/21 03:37:57;;;;;;;45.80;25.00;;;;;;;8.30;100.00;100841.52;108748;1260;71194;-77
2023/02/21 03:40:28;;;;;;;42.00;23.20;;;;;;;8.31;100.00;100851.86;108722;1259;71739;-76
2023/02/21 03:42:56;;;;;;;44.40;24.30;;;;;;;8.33;100.00;100837.13;108786;1259;60941;-77
2023/02/21 03:45:23;;;;;;;45.00;23.40;;;;;;;8.34;100.00;100834.77;108788;1260;60085;-76
2023/02/21 03:47:49;;;;;;;43.00;23.80;;;;;;;8.35;100.00;100841.67;108692;1260;74645;-77
2023/02/21 03:50:17;;;;;;;41.30;22.50;;;;;;;8.36;100.00;100838.83;108790;1258;69957;-76
2023/02/21 03:52:44;;;;;;;40.50;21.60;;;;;;;8.37;100.00;100838.34;108687;1257;72782;-76
2023/02/21 03:55:12;;;;;;;42.80;24.10;;;;;;;8.38;100.00;100836.98;108716;1259;61765;-76
2023/02/21 03:57:39;;;;;;;46.40;23.90;;;;;;;8.39;100.00;100839.61;108805;1260;60084;-76
2023/02/21 04:00:06;;;;;;;45.70;24.10;;;;;;;8.41;100.00;100837.82;108763;1260;74364;-76
2023/02/21 04:02:33;;;;;;;42.40;24.00;;;;;;;8.42;100.00;100839.81;108744;1257;70085;-76
2023/02/21 04:05:00;;;;;;;44.50;24.70;;;;;;;8.44;100.00;100840.36;108724;1257;71108;-76
2023/02/21 04:07:27;;;;;;;41.20;23.20;;;;;;;8.45;100.00;100840.73;108752;1258;59888;-76
2023/02/21 04:09:54;;;;;;;40.80;22.50;;;;;;;8.44;100.00;100847.20;108820;1257;58956;-76
2023/02/21 04:12:21;;;;;;;38.40;21.60;;;;;;;8.45;100.00;100848.84;108834;1257;73492;-77
2023/02/21 04:14:48;;;;;;;41.70;23.40;;;;;;;8.46;100.00;100840.44;108779;1260;70869;-76
2023/02/21 04:17:16;;;;;;;39.00;22.10;;;;;;;8.46;100.00;100843.48;108725;1258;72404;-76
2023/02/21 04:19:43;;;;;;;41.10;22.40;;;;;;;8.48;100.00;100836.55;108800;1260;60000;-76
2023/02/21 04:25:57;;;;;;;41.00;24.80;;;;;;;8.48;100.00;100828.06;108795;1257;73478;-76
2023/02/21 04:28:24;;;;;;;41.50;24.10;;;;;;;8.50;100.00;100834.27;108793;1260;72425;-76
2023/02/21 04:30:51;;;;;;;43.60;24.40;;;;;;;8.50;100.00;100826.95;108789;1260;73738;-76
2023/02/21 04:33:26;;;;;;;41.30;23.60;;;;;;;8.51;100.00;100830.21;108810;1260;59763;-76
2023/02/21 04:35:53;;;;;;;39.50;24.40;;;;;;;8.51;100.00;100828.27;108676;1257;60711;-76
2023/02/21 04:38:20;;;;;;;38.90;23.30;;;;;;;8.53;100.00;100826.66;108738;1259;73803;-76
2023/02/21 04:40:47;;;;;;;37.40;22.10;;;;;;;8.54;100.00;100826.77;108617;1259;69785;-76
2023/02/21 04:43:14;;;;;;;42.50;23.50;;;;;;;8.55;100.00;100831.26;108645;1260;70220;-76
2023/02/21 04:45:42;;;;;;;38.70;21.20;;;;;;;8.56;100.00;100828.27;108780;1259;59719;-77
2023/02/21 04:48:09;;;;;;;40.80;24.30;;;;;;;8.57;100.00;100823.41;108753;1258;59520;-78
2023/02/21 04:50:35;;;;;;;40.10;23.30;;;;;;;8.55;100.00;100821.18;108797;1261;74268;-76
2023/02/21 04:53:02;;;;;;;36.80;21.80;;;;;;;8.59;100.00;100812.41;108798;1259;70070;-77
2023/02/21 04:55:30;;;;;;;39.10;23.00;;;;;;;8.60;100.00;100813.33;108689;1257;71192;-77
2023/02/21 04:57:57;;;;;;;38.90;21.60;;;;;;;8.60;100.00;100816.98;108781;1257;61012;-77
2023/02/21 05:00:24;;;;;;;36.10;21.70;;;;;;;8.62;100.00;100809.07;108763;1257;60078;-77
2023/02/21 05:02:51;;;;;;;35.40;22.60;;;;;;;8.60;100.00;100807.34;108774;1259;75798;-77
2023/02/21 05:05:18;;;;;;;35.20;20.00;;;;;;;8.61;100.00;100803.02;108779;1259;70056;-77
2023/02/21 05:07:45;;;;;;;34.00;21.90;;;;;;;8.62;100.00;100807.78;108778;1259;71500;-76
2023/02/21 05:10:14;;;;;;;35.30;21.40;;;;;;;8.64;100.00;100809.77;108780;1257;60485;-77
2023/02/21 05:12:41;;;;;;;37.40;22.00;;;;;;;8.64;100.00;100815.02;108813;1257;59598;-77
2023/02/21 05:15:08;;;;;;;35.90;21.90;;;;;;;8.63;100.00;100818.43;108668;1258;73520;-76
2023/02/21 05:17:35;;;;;;;35.20;21.40;;;;;;;8.63;100.00;100816.38;108804;1257;70956;-77
2023/02/21 05:20:03;;;;;;;35.10;21.10;;;;;;;8.63;100.00;100814.56;108728;1261;71388;-77
2023/02/21 05:22:29;;;;;;;35.10;21.80;;;;;;;8.64;100.00;100818.37;108707;1257;60216;-77
2023/02/21 05:24:57;;;;;;;40.50;24.70;;;;;;;8.66;100.00;100823.24;108755;1257;60904;-76
2023/02/21 05:27:24;;;;;;;36.20;22.20;;;;;;;8.66;100.00;100823.04;108786;1257;74453;-76
2023/02/21 05:29:52;;;;;;;32.20;19.90;;;;;;;8.68;100.00;100830.81;108694;1257;69994;-76
2023/02/21 05:32:20;;;;;;;33.70;22.00;;;;;;;8.67;100.00;100834.61;108748;1257;72694;-76
2023/02/21 05:34:47;;;;;;;34.00;20.60;;;;;;;8.70;100.00;100819.69;108667;1259;60638;-77
2023/02/21 05:37:16;;;;;;;30.60;19.90;;;;;;;8.69;100.00;100826.10;108671;1257;59119;-76
2023/02/21 05:39:43;;;;;;;33.90;21.50;;;;;;;8.70;100.00;100818.23;108769;1257;74381;-78
2023/02/21 05:42:10;;;;;;;30.50;18.60;;;;;;;8.71;100.00;100813.08;108798;1257;71101;-77
2023/02/21 05:44:37;;;;;;;29.50;17.90;;;;;;;8.71;100.00;100827.98;108692;1257;72406;-77
2023/02/21 05:47:06;;;;;;;31.00;18.50;;;;;;;8.73;100.00;100827.23;108747;1257;59657;-77
2023/02/21 05:49:33;;;;;;;32.00;19.90;;;;;;;8.75;100.00;100820.23;108705;1257;59881;-77
2023/02/21 05:51:59;;;;;;;30.10;20.00;;;;;;;8.74;100.00;100828.20;108781;1259;74587;-76
2023/02/21 05:54:26;;;;;;;30.00;18.70;;;;;;;8.76;100.00;100828.42;108808;1257;70130;-77
2023/02/21 05:56:54;;;;;;;28.60;18.80;;;;;;;8.76;100.00;100835.97;108728;1260;71443;-77
2023/02/21 05:59:21;;;;;;;29.10;19.10;;;;;;;8.76;100.00;100823.11;108790;1257;61420;-77
2023/02/21 06:01:48;;;;;;;31.40;19.40;;;;;;;8.78;100.00;100832.40;108767;1257;60050;-77
2023/02/21 06:04:15;;;;;;;32.00;21.10;;;;;;;8.75;100.00;100846.52;108702;1258;72428;-77
2023/02/21 06:06:42;;;;;;;33.40;21.00;;;;;;;8.76;100.00;100832.41;108817;1257;70091;-77
2023/02/21 06:09:10;;;;;;;32.50;19.30;;;;;;;8.76;100.00;100836.30;108678;1259;71455;-77
2023/02/21 06:11:39;;;;;;;33.70;21.70;;;;;;;8.74;100.00;100840.93;108681;1258;59038;-77
2023/02/21 06:14:13;;;;;;;33.20;20.00;;;;;;;8.76;100.00;100839.70;108666;1259;62034;-77
2023/02/21 06:16:40;;;;;;;29.60;19.00;;;;;;;8.74;100.00;100840.56;108781;1257;73714;-76
2023/02/21 06:19:08;;;;;;;28.90;17.30;;;;;;;8.74;100.00;100842.54;108802;1260;69904;-76
2023/02/21 06:21:36;;;;;;;34.60;21.40;;;;;;;8.73;100.00;100842.80;108716;1259;71684;-77
2023/02/21 06:24:04;;;;;;;32.50;21.20;;;;;;;8.72;100.00;100852.95;108775;1257;60190;-77
2023/02/21 06:26:31;;;;;;;32.70;20.20;;;;;;;8.73;100.00;100845.09;108784;1258;60570;-77
2023/02/21 06:28:58;;;;;;;30.50;17.40;;;;;;;8.74;100.00;100840.56;108816;1256;74689;-77
2023/02/21 06:31:25;;;;;;;38.30;23.10;;;;;;;8.73;100.00;100847.50;108875;1256;69974;-77
2023/02/21 06:33:52;;;;;;;36.50;21.00;;;;;;;8.74;100.00;100856.30;108744;1257;71501;-77
2023/02/21 06:36:26;;;;;;;32.70;19.70;;;;;;;8.73;100.00;100855.14;108755;1257;59841;-78
2023/02/21 06:38:54;;;;;;;32.10;19.10;;;;;;;8.72;100.00;100857.87;108833;1260;60360;-77
2023/02/21 06:41:23;;;;;;;34.50;22.20;;;;;;;8.72;100.00;100852.10;108803;1259;74304;-77
2023/02/21 06:43:51;;;;;;;31.00;19.70;;;;;;;8.73;100.00;100856.23;108781;1259;70902;-77
2023/02/21 06:46:21;;;;;;;32.70;20.50;;;;;;;8.73;100.00;100857.42;108691;1258;73344;-77
2023/02/21 06:48:48;;;;;;;34.10;20.40;;;;;;;8.74;100.00;100859.64;108672;1257;60267;-77
2023/02/21 06:51:15;;;;;;;35.60;22.80;;;;;;;8.74;100.00;100864.20;108762;1257;59008;-78
2023/02/21 06:53:43;;;;;;;35.40;21.90;;;;;;;8.75;100.00;100864.30;108787;1257;73838;-77
2023/02/21 06:56:10;;;;;;;33.50;20.10;;;;;;;8.74;100.00;100871.73;108645;1261;70067;-77
2023/02/21 06:58:37;;;;;;;34.80;21.30;;;;;;;8.75;100.00;100872.73;108778;1259;73271;-78
2023/02/21 07:01:04;;;;;;;33.50;19.90;;;;;;;8.74;100.00;100883.24;108647;1258;62057;-77
2023/02/21 07:03:32;;;;;;;35.40;20.50;;;;;;;8.76;100.00;100885.11;108800;1257;59804;-78
2023/02/21 07:05:59;;;;;;;36.40;23.10;;;;;;;8.78;100.00;100881.11;108819;1257;73184;-77
2023/02/21 07:08:26;;;;;;;38.40;23.40;;;;;;;8.80;100.00;100882.52;108666;1260;69751;-77
2023/02/21 07:10:53;;;;;;;33.20;19.50;;;;;;;8.79;100.00;100892.81;108764;1257;71712;-78
2023/02/21 07:13:20;;;;;;;37.90;23.40;;;;;;;8.81;100.00;100897.19;108783;1257;60920;-77
2023/02/21 07:15:48;;;;;;;38.70;23.00;;;;;;;8.83;100.00;100894.39;108758;1257;61611;-77
2023/02/21 07:18:15;;;;;;;35.90;21.10;;;;;;;8.84;100.00;100898.98;108741;1259;74493;-77
2023/02/21 07:20:42;;;;;;;31.90;18.80;;;;;;;8.87;100.00;100904.17;108712;1257;69699;-77
2023/02/21 07:23:09;;;;;;;33.70;21.90;;;;;;;8.86;100.00;100911.61;108750;1257;70947;-77
2023/02/21 07:25:36;;;;;;;33.20;20.00;;;;;;;8.88;100.00;100914.58;108768;1258;59672;-77
2023/02/21 07:28:03;;;;;;;35.80;20.40;;;;;;;8.86;100.00;100910.58;108687;1257;59049;-77
2023/02/21 07:30:30;;;;;;;33.90;19.90;;;;;;;8.89;100.00;100914.88;108799;1258;73428;-78
2023/02/21 07:32:57;;;;;;;35.20;21.70;;;;;;;8.88;100.00;100913.73;108841;1257;70986;-78
2023/02/21 07:35:25;;;;;;;33.30;20.60;;;;;;;8.91;100.00;100918.04;108770;1258;71295;-78
2023/02/21 07:37:53;;;;;;;35.80;21.60;;;;;;;8.90;100.00;100927.46;108661;1258;61376;-78
2023/02/21 07:40:20;;;;;;;36.10;21.90;;;;;;;8.91;100.00;100916.45;108839;1257;59707;-78
2023/02/21 07:42:47;;;;;;;37.50;22.00;;;;;;;8.92;100.00;100916.48;108810;1257;72964;-78
2023/02/21 07:45:15;;;;;;;32.90;21.40;;;;;;;8.93;100.00;100920.56;108824;1257;70937;-78
2023/02/21 07:47:44;;;;;;;37.20;21.50;;;;;;;8.92;100.00;100922.80;108180;1257;813814;-77
2023/02/21 07:50:14;;;;;;;31.80;19.40;;;;;;;8.92;100.00;100930.38;108764;1257;60360;-78
2023/02/21 07:52:41;;;;;;;34.10;21.20;;;;;;;8.92;100.00;100930.44;108804;1257;59501;-78
2023/02/21 07:55:10;;;;;;;34.40;21.00;;;;;;;8.94;100.00;100925.73;108876;1257;73638;-78
2023/02/21 07:57:37;;;;;;;34.60;21.90;;;;;;;8.96;100.00;100934.01;108876;1257;71394;-78
2023/02/21 08:00:05;;;;;;;35.00;21.60;;;;;;;8.96;100.00;100931.56;108716;1257;72366;-78
2023/02/21 08:02:32;;;;;;;34.80;20.80;;;;;;;8.97;100.00;100937.51;108861;1258;59636;-78
2023/02/21 08:04:59;;;;;;;31.60;20.00;;;;;;;8.96;100.00;100938.63;108857;1257;60130;-78
2023/02/21 08:07:26;;;;;;;36.70;21.20;;;;;;;8.96;100.00;100938.67;108873;1257;74400;-78
2023/02/21 08:09:53;;;;;;;34.10;20.60;;;;;;;8.97;100.00;100939.99;108786;1257;70910;-78
2023/02/21 08:12:20;;;;;;;32.30;20.30;;;;;;;8.97;100.00;100939.94;108795;1257;72558;-78
2023/02/21 08:14:47;;;;;;;34.20;21.40;;;;;;;8.98;100.00;100939.67;108818;1257;60953;-78
2023/02/21 08:17:14;;;;;;;37.30;22.60;;;;;;;9.02;100.00;100943.38;108785;1259;61767;-77
2023/02/21 08:19:41;;;;;;;34.40;20.80;;;;;;;9.03;100.00;100949.29;108775;1258;74757;-77
2023/02/21 08:22:08;;;;;;;37.00;21.50;;;;;;;9.02;100.00;100947.54;108810;1260;69996;-77
2023/02/21 08:24:35;;;;;;;37.90;22.90;;;;;;;9.04;100.00;100958.52;108821;1258;71449;-77
2023/02/21 08:27:03;;;;;;;37.00;22.30;;;;;;;9.04;100.00;100956.57;108702;1258;59636;-77
2023/02/21 08:29:29;;;;;;;34.80;21.40;;;;;;;9.05;100.00;100960.27;108769;1257;59751;-77
2023/02/21 08:31:57;;;;;;;38.80;23.40;;;;;;;9.06;100.00;100957.98;108811;1257;74410;-77
2023/02/21 08:34:24;;;;;;;39.70;23.40;;;;;;;9.06;100.00;100961.96;108813;1258;69985;-77
2023/02/21 08:36:51;;;;;;;34.90;20.60;;;;;;;9.09;100.00;100961.34;108796;1258;71121;-77
2023/02/21 08:39:17;;;;;;;36.80;23.10;;;;;;;9.10;100.00;100962.31;108741;1258;59863;-77
2023/02/21 08:41:47;;;;;;;36.70;22.80;;;;;;;9.11;100.00;100971.73;108839;1257;59302;-77
2023/02/21 08:44:15;;;;;;;39.50;23.30;;;;;;;9.12;100.00;100961.77;108799;1257;75403;-77
2023/02/21 08:46:43;;;;;;;37.80;23.00;;;;;;;9.12;100.00;100968.45;108794;1257;70558;-77
2023/02/21 08:49:10;;;;;;;37.00;21.90;;;;;;;9.16;100.00;100969.46;108648;1259;72691;-77
2023/02/21 08:51:39;;;;;;;33.40;21.60;;;;;;;9.17;100.00;100964.16;108749;1257;60961;-77
2023/02/21 08:54:06;;;;;;;36.40;21.40;;;;;;;9.23;100.00;100964.06;108802;1257;59612;-77
2023/02/21 08:56:33;;;;;;;38.30;24.40;;;;;;;9.23;100.00;100969.55;108858;1257;73428;-77
2023/02/21 08:59:02;;;;;;;36.60;22.70;;;;;;;9.26;100.00;100964.16;108728;1258;69855;-77
2023/02/21 09:01:32;;;;;;;38.00;23.80;;;;;;;9.27;100.00;100969.86;108855;1257;72699;-76
2023/02/21 09:04:00;;;;;;;35.50;21.20;;;;;;;9.27;100.00;100960.51;108695;1260;62465;-77
2023/02/21 09:06:27;;;;;;;35.30;21.60;;;;;;;9.29;100.00;100962.75;108738;1258;59169;-77
2023/02/21 09:08:54;;;;;;;32.20;19.80;;;;;;;9.31;100.00;100959.92;108740;1259;74444;-76
2023/02/21 09:11:22;;;;;;;34.30;20.60;;;;;;;9.33;100.00;100960.09;108835;1257;71233;-77
2023/02/21 09:13:49;;;;;;;31.10;18.50;;;;;;;9.38;100.00;100956.52;108709;1257;72911;-77
2023/02/21 09:16:16;;;;;;;31.50;20.60;;;;;;;9.42;100.00;100960.25;108739;1258;60996;-76
2023/02/21 09:18:43;;;;;;;30.40;19.00;;;;;;;9.46;100.00;100957.13;108841;1257;60475;-76
2023/02/21 09:21:10;;;;;;;31.60;19.80;;;;;;;9.47;100.00;100965.14;108783;1258;75422;-76
2023/02/21 09:23:37;;;;;;;31.50;20.40;;;;;;;9.53;100.00;100966.14;108841;1257;70210;-76
2023/02/21 09:26:04;;;;;;;30.50;19.30;;;;;;;9.55;100.00;100967.67;108797;1259;70475;-76
2023/02/21 09:28:31;;;;;;;33.90;20.10;;;;;;;9.54;100.00;100974.09;108789;1258;59794;-76
2023/02/21 09:30:58;;;;;;;30.20;18.60;;;;;;;9.54;100.00;100966.02;108810;1259;59092;-76
2023/02/21 09:33:25;;;;;;;32.70;20.20;;;;;;;9.51;100.00;100966.14;108736;1257;73143;-76
2023/02/21 09:35:52;;;;;;;32.30;20.30;;;;;;;9.52;100.00;100968.85;108782;1258;70878;-76
2023/02/21 09:38:19;;;;;;;31.70;18.00;;;;;;;9.54;100.00;100957.34;108794;1258;72680;-76
2023/02/21 09:40:57;;;;;;;32.80;21.20;;;;;;;9.54;100.00;100956.69;108758;1259;60843;-76
2023/02/21 09:43:33;;;;;;;32.30;19.90;;;;;;;9.59;100.00;100956.59;108856;1257;60063;-76
2023/02/21 09:46:06;;;;;;;31.30;19.60;;;;;;;9.60;100.00;100962.39;108744;1259;74753;-76
2023/02/21 09:48:33;;;;;;;33.50;21.10;;;;;;;9.63;100.00;100968.09;108755;1257;71449;-76
2023/02/21 09:51:04;;;;;;;32.50;21.00;;;;;;;9.71;100.00;100955.70;108742;1259;70637;-76
2023/02/21 09:53:35;;;;;;;33.10;19.10;;;;;;;9.77;100.00;100955.40;108772;1257;61738;-76
2023/02/21 09:56:11;;;;;;;32.20;20.40;;;;;;;9.85;100.00;100960.44;108758;1258;59639;-75
2023/02/21 09:58:44;;;;;;;28.80;18.20;;;;;;;9.89;100.00;100964.83;108840;1259;74364;-75
2023/02/21 10:01:38;;;;;;;28.80;18.60;;;;;;;9.95;100.00;100964.83;108722;1257;69832;-76
2023/02/21 10:04:30;;;;;;;31.10;19.20;;;;;;;9.99;99.71;100959.10;108792;1258;71691;-76
2023/02/21 10:07:04;;;;;;;28.90;17.80;;;;;;;10.07;99.40;100969.69;108783;1261;61425;-75
2023/02/21 10:09:51;;;;;;;27.50;17.60;;;;;;;10.15;98.48;100966.54;108812;1257;59338;-75
2023/02/21 10:12:26;;;;;;;31.70;20.40;;;;;;;10.20;98.10;100964.74;108711;1257;72291;-75
2023/02/21 10:15:42;;;;;;;29.00;18.70;;;;;;;10.29;97.58;100969.00;108808;1258;71136;-75
2023/02/21 10:18:22;;;;;;;30.20;19.60;;;;;;;10.41;97.60;100965.16;108731;1258;73133;-75
2023/02/21 10:20:56;;;;;;;27.90;17.40;;;;;;;10.37;97.09;100966.49;108811;1257;61718;-75
2023/02/21 10:23:36;;;;;;;30.00;18.80;;;;;;;10.42;96.89;100962.28;108786;1257;59334;-74
2023/02/21 10:26:08;;;;;;;29.80;18.40;;;;;;;10.44;96.85;100961.02;108777;1260;73924;-75
2023/02/21 10:28:36;;;;;;;29.10;19.10;;;;;;;10.47;96.76;100962.74;108733;1259;72109;-75
2023/02/21 10:31:28;;;;;;;27.30;18.20;;;;;;;10.50;96.65;100953.98;108784;1258;71280;-75
2023/02/21 10:33:55;;;;;;;27.10;16.40;;;;;;;10.46;96.16;100965.33;108789;1257;61099;-75
2023/02/21 10:36:22;;;;;;;26.80;17.70;;;;;;;10.47;95.64;100957.34;108817;1259;59704;-75
2023/02/21 10:39:14;;;;;;;32.50;19.40;;;;;;;10.54;96.52;100959.38;108782;1257;75137;-75
2023/02/21 10:41:41;;;;;;;29.00;19.10;;;;;;;10.50;96.12;100959.45;108799;1258;69792;-75
2023/02/21 10:44:14;;;;;;;29.70;17.50;;;;;;;10.47;95.93;100966.12;108789;1257;71131;-75
2023/02/21 10:46:53;;;;;;;28.70;18.00;;;;;;;10.43;96.14;100975.44;108743;1259;59992;-75
2023/02/21 10:49:28;;;;;;;27.00;17.80;;;;;;;10.38;96.41;100980.72;108777;1259;60179;-75
2023/02/21 10:52:08;;;;;;;29.80;18.80;;;;;;;10.45;96.76;100976.44;108811;1258;72859;-75
2023/02/21 10:54:35;;;;;;;28.00;17.30;;;;;;;10.51;96.43;100979.35;108781;1259;71056;-75
2023/02/21 10:57:04;;;;;;;27.50;17.90;;;;;;;10.50;95.86;100981.70;108667;1259;72809;-75
2023/02/21 10:59:36;;;;;;;25.90;15.90;;;;;;;10.54;95.62;100989.10;108771;1257;60548;-76
2023/02/21 11:02:32;;;;;;;27.40;16.60;;;;;;;10.49;95.22;100995.40;108814;1257;59306;-75
2023/02/21 11:05:15;;;;;;;24.40;16.00;;;;;;;10.51;95.51;100991.88;108749;1258;73591;-75
2023/02/21 11:08:14;;;;;;;25.20;15.50;;;;;;;10.48;95.22;100995.90;108772;1257;70556;-75
2023/02/21 11:10:42;;;;;;;23.40;15.30;;;;;;;10.44;95.70;100996.23;108743;1258;71468;-75
2023/02/21 11:13:15;;;;;;;25.30;15.90;;;;;;;10.46;95.60;100993.02;108688;1259;60479;-76
2023/02/21 11:15:46;;;;;;;28.00;16.50;;;;;;;10.46;95.55;100995.13;108769;1257;60214;-75
2023/02/21 11:18:22;;;;;;;25.30;16.90;;;;;;;10.46;95.61;101000.71;108763;1257;74154;-75
2023/02/21 11:20:50;;;;;;;24.70;16.60;;;;;;;10.36;95.44;101006.64;108841;1257;71049;-75
2023/02/21 11:23:22;;;;;;;26.20;17.20;;;;;;;10.32;96.02;101005.81;108835;1257;72769;-76
2023/02/21 11:25:57;;;;;;;25.90;16.60;;;;;;;10.32;96.16;100999.61;108776;1257;60501;-75
2023/02/21 11:28:25;;;;;;;25.80;15.60;;;;;;;10.42;96.68;100995.17;108794;1258;60334;-75
2023/02/21 11:30:58;;;;;;;27.60;16.40;;;;;;;10.45;96.54;100999.46;108814;1257;73482;-75
2023/02/21 11:33:25;;;;;;;23.80;15.50;;;;;;;10.38;95.91;100999.88;108855;1257;71234;-75
2023/02/21 11:36:06;;;;;;;25.10;15.30;;;;;;;10.35;95.98;100999.27;108834;1259;71635;-75
2023/02/21 11:38:37;;;;;;;23.50;15.00;;;;;;;10.33;96.19;100997.23;108765;1257;60439;-75
2023/02/21 11:41:19;;;;;;;23.90;15.20;;;;;;;10.36;96.06;100998.45;108860;1257;60238;-75
2023/02/21 11:43:49;;;;;;;23.40;14.30;;;;;;;10.43;95.26;100992.73;108787;1259;75428;-76
2023/02/21 11:46:29;;;;;;;23.70;15.20;;;;;;;10.54;94.92;100989.66;108744;1259;70865;-75
2023/02/21 11:49:23;;;;;;;23.60;15.90;;;;;;;10.60;94.78;100987.54;108777;1258;71290;-75
2023/02/21 11:52:08;;;;;;;24.40;15.60;;;;;;;10.75;94.36;100983.63;108807;1259;59491;-75
2023/02/21 11:54:36;;;;;;;20.90;13.50;;;;;;;10.87;93.51;100984.27;108793;1259;59271;-75
2023/02/21 11:57:28;;;;;;;18.20;12.10;;;;;;;10.90;92.39;100989.95;108758;1259;73448;-75
2023/02/21 12:00:21;;;;;;;22.20;14.00;;;;;;;10.97;91.70;100983.93;108771;1257;69690;-75
2023/02/21 12:03:12;;;;;;;19.20;13.80;;;;;;;11.20;90.90;100981.09;108845;1257;70171;-75
2023/02/21 12:05:48;;;;;;;19.10;12.80;;;;;;;11.54;89.51;100973.95;108768;1257;61710;-75
2023/02/21 12:08:30;;;;;;;16.70;11.80;;;;;;;11.83;87.70;100981.83;108836;1259;60373;-75
2023/02/21 12:11:13;;;;;;;17.80;11.60;;;;;;;12.13;86.54;100977.24;108870;1257;73477;-75
2023/02/21 12:13:55;;;;;;;17.30;11.80;;;;;;;12.42;84.85;100978.90;108746;1259;69627;-75
2023/02/21 12:16:47;;;;;;;17.50;12.50;;;;;;;12.57;83.60;100977.56;108783;1259;72701;-75
2023/02/21 12:19:19;;;;;;;18.30;12.70;;;;;;;12.54;83.49;100979.79;108782;1258;61136;-75
2023/02/21 12:22:02;;;;;;;17.40;12.10;;;;;;;12.52;83.25;100980.95;108859;1257;59155;-75
2023/02/21 12:24:54;;;;;;;16.90;11.70;;;;;;;12.41;83.52;100980.61;108847;1259;74360;-75
2023/02/21 12:27:46;;;;;;;17.80;12.20;;;;;;;12.30;83.63;100985.59;108874;1258;70087;-75
2023/02/21 12:30:26;;;;;;;16.20;11.60;;;;;;;12.15;84.09;100981.65;108845;1258;71116;-75
2023/02/21 12:33:00;;;;;;;17.60;12.30;;;;;;;12.14;84.58;100974.31;108779;1257;61819;-75
2023/02/21 12:35:50;;;;;;;16.30;11.50;;;;;;;12.21;84.52;100972.99;108815;1258;59107;-75
2023/02/21 12:38:17;;;;;;;16.00;12.10;;;;;;;12.36;83.22;100966.77;108858;1258;73527;-75
2023/02/21 12:41:04;;;;;;;15.70;11.10;;;;;;;12.84;81.65;100970.16;108787;1260;70087;-75
2023/02/21 12:43:43;;;;;;;11.60;8.50;;;;;;;13.31;77.95;100964.88;108826;1257;72314;-75
2023/02/21 12:46:37;;;;;;;12.80;10.10;;;;;;;13.32;78.05;100961.27;108743;1259;60586;-76
2023/02/21 12:49:30;;;;;;;13.10;9.90;;;;;;;13.51;76.92;100964.10;108763;1258;59847;-76
2023/02/21 12:52:05;;;;;;;13.70;10.10;;;;;;;13.74;76.01;100960.20;108783;1259;73863;-76
2023/02/21 12:54:58;;;;;;;12.70;9.60;;;;;;;13.83;75.43;100956.47;108698;1259;70913;-76
2023/02/21 12:57:59;;;;;;;12.80;9.80;;;;;;;13.56;75.97;100957.67;108805;1257;71457;-76
2023/02/21 13:00:33;;;;;;;12.10;9.40;;;;;;;13.37;76.46;100951.37;108749;1259;62918;-76
2023/02/21 13:03:18;;;;;;;13.50;9.90;;;;;;;13.06;76.99;100957.23;108770;1259;59862;-76
2023/02/21 13:05:51;;;;;;;13.00;9.20;;;;;;;12.66;77.93;100948.33;108751;1257;74746;-76
2023/02/21 13:08:20;;;;;;;12.10;9.60;;;;;;;12.33;79.19;100954.07;108773;1257;70918;-76
2023/02/21 13:10:52;;;;;;;14.70;9.90;;;;;;;12.13;81.18;100955.30;108791;1258;71051;-75
2023/02/21 13:13:27;;;;;;;13.20;9.30;;;;;;;12.01;82.75;100953.70;108777;1258;60501;-75
2023/02/21 13:15:56;;;;;;;14.60;10.60;;;;;;;11.87;83.09;100954.45;108816;1259;59129;-75
2023/02/21 13:18:44;;;;;;;16.40;10.50;;;;;;;11.73;83.53;100958.09;108760;1257;74680;-76
2023/02/21 13:21:54;;;;;;;14.40;10.70;;;;;;;11.72;84.30;100947.63;108809;1258;70912;-76
2023/02/21 13:24:44;;;;;;;14.70;9.70;;;;;;;11.65;84.34;100951.92;108604;1258;72881;-76
2023/02/21 13:27:33;;;;;;;14.40;11.00;;;;;;;11.60;84.83;100952.36;108842;1258;61493;-76
2023/02/21 13:30:40;;;;;;;13.90;10.00;;;;;;;11.61;85.27;100947.46;108771;1259;59872;-76
2023/02/21 13:33:23;;;;;;;13.10;10.30;;;;;;;11.83;85.48;100944.63;108699;1262;76567;-76
2023/02/21 13:35:50;;;;;;;14.80;9.70;;;;;;;11.92;84.47;100945.49;108848;1257;69725;-76
2023/02/21 13:38:18;;;;;;;13.60;8.80;;;;;;;11.96;84.25;100939.38;108769;1257;71905;-76
2023/02/21 13:40:53;;;;;;;13.10;10.00;;;;;;;11.93;83.24;100937.04;108795;1259;62028;-76
2023/02/21 13:43:25;;;;;;;13.10;9.50;;;;;;;11.91;83.44;100940.30;108753;1259;59323;-76
2023/02/21 13:45:52;;;;;;;15.00;10.40;;;;;;;12.02;83.51;100931.27;108789;1257;74824;-76